sensor_id;sensor_type;location;lat;lon;timestamp;pressure;altitude;pressure_sealevel;temperature;humidity
62680;BME280;68213;40.528;44.712;2023-04-10T00:00:08;80654.63;;;4.09;54.88
62680;BME280;68213;40.528;44.712;2023-04-10T00:01:09;80656.69;;;4.11;54.02
62680;BME280;68213;40.528;44.712;2023-04-10T00:02:10;80650.81;;;4.10;54.33
62680;BME280;68213;40.528;44.712;2023-04-10T00:03:10;80662.28;;;4.07;55.17
62680;BME280;68213;40.528;44.712;2023-04-10T00:04:11;80660.22;;;4.06;54.81
62680;BME280;68213;40.528;44.712;2023-04-10T00:05:14;80637.72;;;3.83;54.68
62680;BME280;68213;40.528;44.712;2023-04-10T00:06:15;80660.91;;;4.06;53.78
62680;BME280;68213;40.528;44.712;2023-04-10T00:07:16;80667.34;;;4.05;54.08
62680;BME280;68213;40.528;44.712;2023-04-10T00:08:16;80671.09;;;3.94;55.32
62680;BME280;68213;40.528;44.712;2023-04-10T00:09:17;80662.75;;;3.96;55.66
62680;BME280;68213;40.528;44.712;2023-04-10T00:10:18;80661.66;;;3.99;54.44
62680;BME280;68213;40.528;44.712;2023-04-10T00:11:19;80666.66;;;4.05;54.46
62680;BME280;68213;40.528;44.712;2023-04-10T00:12:20;80672.41;;;4.03;54.05
62680;BME280;68213;40.528;44.712;2023-04-10T00:13:20;80660.91;;;4.06;53.80
62680;BME280;68213;40.528;44.712;2023-04-10T00:14:21;80641.78;;;3.94;53.61
62680;BME280;68213;40.528;44.712;2023-04-10T00:15:26;80668.03;;;4.06;53.66
62680;BME280;68213;40.528;44.712;2023-04-10T00:16:28;80658.47;;;4.08;53.17
62680;BME280;68213;40.528;44.712;2023-04-10T00:17:28;80645.47;;;3.91;53.96
62680;BME280;68213;40.528;44.712;2023-04-10T00:18:29;80654.34;;;4.05;54.09
62680;BME280;68213;40.528;44.712;2023-04-10T00:19:30;80650.75;;;4.01;54.72
62680;BME280;68213;40.528;44.712;2023-04-10T00:20:30;80658.22;;;3.96;55.26
62680;BME280;68213;40.528;44.712;2023-04-10T00:21:31;80655.41;;;3.85;55.10
62680;BME280;68213;40.528;44.712;2023-04-10T00:22:32;80658.28;;;3.71;55.82
62680;BME280;68213;40.528;44.712;2023-04-10T00:23:32;80650.94;;;3.77;55.78
62680;BME280;68213;40.528;44.712;2023-04-10T00:24:34;80655.09;;;3.80;55.66
62680;BME280;68213;40.528;44.712;2023-04-10T00:25:35;80651.50;;;3.76;55.83
62680;BME280;68213;40.528;44.712;2023-04-10T00:26:35;80643.47;;;3.64;55.00
62680;BME280;68213;40.528;44.712;2023-04-10T00:27:36;80650.81;;;3.75;54.77
62680;BME280;68213;40.528;44.712;2023-04-10T00:28:36;80654.63;;;3.74;54.16
62680;BME280;68213;40.528;44.712;2023-04-10T00:29:38;80660.13;;;3.78;54.07
62680;BME280;68213;40.528;44.712;2023-04-10T00:30:39;80656.47;;;3.81;53.78
62680;BME280;68213;40.528;44.712;2023-04-10T00:31:39;80659.75;;;3.64;56.77
62680;BME280;68213;40.528;44.712;2023-04-10T00:32:40;80669.25;;;3.70;55.62
62680;BME280;68213;40.528;44.712;2023-04-10T00:33:41;80663.50;;;3.71;55.55
62680;BME280;68213;40.528;44.712;2023-04-10T00:34:41;80664.72;;;3.70;54.84
62680;BME280;68213;40.528;44.712;2023-04-10T00:35:42;80656.06;;;3.68;53.65
62680;BME280;68213;40.528;44.712;2023-04-10T00:36:44;80658.28;;;3.54;54.47
62680;BME280;68213;40.528;44.712;2023-04-10T00:37:46;80654.16;;;3.51;54.78
62680;BME280;68213;40.528;44.712;2023-04-10T00:38:47;80657.44;;;3.51;55.03
62680;BME280;68213;40.528;44.712;2023-04-10T00:39:49;80651.38;;;3.48;55.00
62680;BME280;68213;40.528;44.712;2023-04-10T00:40:49;80639.56;;;3.55;54.82
62680;BME280;68213;40.528;44.712;2023-04-10T00:41:50;80642.63;;;3.61;54.80
62680;BME280;68213;40.528;44.712;2023-04-10T00:42:50;80640.69;;;3.62;55.27
62680;BME280;68213;40.528;44.712;2023-04-10T00:43:55;80639.34;;;3.61;55.35
62680;BME280;68213;40.528;44.712;2023-04-10T00:44:56;80641.78;;;3.59;55.17
62680;BME280;68213;40.528;44.712;2023-04-10T00:45:57;80648.19;;;3.58;54.71
62680;BME280;68213;40.528;44.712;2023-04-10T00:46:58;80644.22;;;3.57;54.62
62680;BME280;68213;40.528;44.712;2023-04-10T00:47:59;80653.69;;;3.62;54.61
62680;BME280;68213;40.528;44.712;2023-04-10T00:48:59;80651.41;;;3.66;54.53
62680;BME280;68213;40.528;44.712;2023-04-10T00:50:01;80655.22;;;3.65;54.52
62680;BME280;68213;40.528;44.712;2023-04-10T00:51:02;80653.31;;;3.65;54.10
62680;BME280;68213;40.528;44.712;2023-04-10T00:52:03;80648.97;;;3.68;54.04
62680;BME280;68213;40.528;44.712;2023-04-10T00:53:04;80641.22;;;3.60;53.81
62680;BME280;68213;40.528;44.712;2023-04-10T00:54:05;80650.66;;;3.73;54.14
62680;BME280;68213;40.528;44.712;2023-04-10T00:55:09;80653.25;;;3.73;53.84
62680;BME280;68213;40.528;44.712;2023-04-10T00:56:11;80651.50;;;3.76;53.77
62680;BME280;68213;40.528;44.712;2023-04-10T00:57:12;80644.25;;;3.74;53.64
62680;BME280;68213;40.528;44.712;2023-04-10T00:58:12;80644.91;;;3.75;53.94
62680;BME280;68213;40.528;44.712;2023-04-10T00:59:14;80637.78;;;3.58;54.80
62680;BME280;68213;40.528;44.712;2023-04-10T01:00:15;80618.06;;;3.55;54.01
62680;BME280;68213;40.528;44.712;2023-04-10T01:01:16;80607.44;;;3.60;53.92
62680;BME280;68213;40.528;44.712;2023-04-10T01:02:17;80616.16;;;3.73;54.18
62680;BME280;68213;40.528;44.712;2023-04-10T01:03:20;80620.75;;;3.82;54.62
62680;BME280;68213;40.528;44.712;2023-04-10T01:04:21;80601.25;;;3.73;54.14
62680;BME280;68213;40.528;44.712;2023-04-10T01:05:23;80619.91;;;3.79;54.66
62680;BME280;68213;40.528;44.712;2023-04-10T01:07:57;80622.34;;;3.42;57.45
62680;BME280;68213;40.528;44.712;2023-04-10T01:10:17;80620.78;;;3.22;57.09
62680;BME280;68213;40.528;44.712;2023-04-10T01:12:11;80624.59;;;3.21;57.83
62680;BME280;68213;40.528;44.712;2023-04-10T01:13:29;80628.25;;;3.17;57.25
62680;BME280;68213;40.528;44.712;2023-04-10T01:16:04;80632.66;;;3.07;57.91
62680;BME280;68213;40.528;44.712;2023-04-10T01:17:11;80633.88;;;3.06;57.65
62680;BME280;68213;40.528;44.712;2023-04-10T01:18:30;80635.38;;;3.17;57.04
62680;BME280;68213;40.528;44.712;2023-04-10T01:20:03;80624.53;;;3.28;56.32
62680;BME280;68213;40.528;44.712;2023-04-10T01:21:05;80636.25;;;3.37;55.93
62680;BME280;68213;40.528;44.712;2023-04-10T01:22:09;80633.41;;;3.43;55.70
62680;BME280;68213;40.528;44.712;2023-04-10T01:26:08;80631.75;;;3.55;56.15
62680;BME280;68213;40.528;44.712;2023-04-10T01:27:33;80634.13;;;3.61;55.45
62680;BME280;68213;40.528;44.712;2023-04-10T01:29:02;80640.84;;;3.64;55.24
62680;BME280;68213;40.528;44.712;2023-04-10T01:30:05;80648.66;;;3.64;55.66
62680;BME280;68213;40.528;44.712;2023-04-10T01:31:15;80647.19;;;3.53;56.23
62680;BME280;68213;40.528;44.712;2023-04-10T01:32:21;80645.97;;;3.54;56.24
62680;BME280;68213;40.528;44.712;2023-04-10T01:33:26;80653.09;;;3.54;56.66
62680;BME280;68213;40.528;44.712;2023-04-10T01:34:38;80644.22;;;3.57;56.27
62680;BME280;68213;40.528;44.712;2023-04-10T01:35:42;80647.66;;;3.59;55.98
62680;BME280;68213;40.528;44.712;2023-04-10T01:36:49;80645.75;;;3.60;56.39
62680;BME280;68213;40.528;44.712;2023-04-10T01:37:52;80648.66;;;3.64;56.48
62680;BME280;68213;40.528;44.712;2023-04-10T01:38:56;80650.34;;;3.69;56.28
62680;BME280;68213;40.528;44.712;2023-04-10T01:40:00;80632.75;;;3.60;55.91
62680;BME280;68213;40.528;44.712;2023-04-10T01:41:04;80623.25;;;3.55;55.38
62680;BME280;68213;40.528;44.712;2023-04-10T01:42:06;80655.47;;;3.77;55.81
62680;BME280;68213;40.528;44.712;2023-04-10T01:43:09;80653.88;;;3.81;55.86
62680;BME280;68213;40.528;44.712;2023-04-10T01:44:12;80651.13;;;3.79;56.94
62680;BME280;68213;40.528;44.712;2023-04-10T01:45:18;80661.50;;;3.79;55.16
62680;BME280;68213;40.528;44.712;2023-04-10T01:46:21;80614.69;;;3.44;57.80
62680;BME280;68213;40.528;44.712;2023-04-10T01:47:24;80659.59;;;3.80;58.35
62680;BME280;68213;40.528;44.712;2023-04-10T01:48:26;80661.28;;;3.85;57.04
62680;BME280;68213;40.528;44.712;2023-04-10T01:49:27;80651.88;;;3.72;57.03
62680;BME280;68213;40.528;44.712;2023-04-10T01:50:30;80654.16;;;3.86;56.64
62680;BME280;68213;40.528;44.712;2023-04-10T01:51:33;80659.84;;;3.92;56.50
62680;BME280;68213;40.528;44.712;2023-04-10T01:52:35;80657.00;;;3.97;56.14
62680;BME280;68213;40.528;44.712;2023-04-10T01:53:37;80657.56;;;3.96;56.69
62680;BME280;68213;40.528;44.712;2023-04-10T01:54:39;80674.53;;;3.97;56.05
62680;BME280;68213;40.528;44.712;2023-04-10T01:55:40;80665.91;;;3.94;55.52
62680;BME280;68213;40.528;44.712;2023-04-10T01:56:42;80677.59;;;4.03;55.63
62680;BME280;68213;40.528;44.712;2023-04-10T01:57:44;80668.88;;;3.91;56.96
62680;BME280;68213;40.528;44.712;2023-04-10T01:58:48;80679.97;;;3.91;56.40
62680;BME280;68213;40.528;44.712;2023-04-10T01:59:49;80679.03;;;3.96;55.73
62680;BME280;68213;40.528;44.712;2023-04-10T02:00:50;80680.41;;;3.97;57.45
62680;BME280;68213;40.528;44.712;2023-04-10T02:02:00;80670.63;;;3.88;57.88
62680;BME280;68213;40.528;44.712;2023-04-10T02:03:01;80678.34;;;3.96;56.37
62680;BME280;68213;40.528;44.712;2023-04-10T02:04:01;80676.97;;;3.95;56.74
62680;BME280;68213;40.528;44.712;2023-04-10T02:05:02;80683.56;;;3.96;57.53
62680;BME280;68213;40.528;44.712;2023-04-10T02:11:46;80671.47;;;3.91;60.63
62680;BME280;68213;40.528;44.712;2023-04-10T02:12:56;80675.06;;;3.95;58.31
62680;BME280;68213;40.528;44.712;2023-04-10T02:14:00;80671.78;;;3.95;60.62
62680;BME280;68213;40.528;44.712;2023-04-10T02:15:25;80665.34;;;3.96;61.46
62680;BME280;68213;40.528;44.712;2023-04-10T02:16:28;80669.72;;;3.93;59.63
62680;BME280;68213;40.528;44.712;2023-04-10T02:17:30;80662.06;;;3.95;60.51
62680;BME280;68213;40.528;44.712;2023-04-10T02:18:33;80656.94;;;3.88;61.61
62680;BME280;68213;40.528;44.712;2023-04-10T02:19:36;80657.22;;;3.92;61.45
62680;BME280;68213;40.528;44.712;2023-04-10T02:20:38;80654.78;;;3.94;59.41
62680;BME280;68213;40.528;44.712;2023-04-10T02:21:39;80657.38;;;3.94;63.32
62680;BME280;68213;40.528;44.712;2023-04-10T02:22:41;80637.94;;;3.77;63.83
62680;BME280;68213;40.528;44.712;2023-04-10T02:23:43;80659.00;;;3.89;64.46
62680;BME280;68213;40.528;44.712;2023-04-10T02:24:44;80656.09;;;3.85;64.11
62680;BME280;68213;40.528;44.712;2023-04-10T02:25:45;80655.63;;;3.79;64.32
62680;BME280;68213;40.528;44.712;2023-04-10T02:26:50;80636.56;;;3.59;64.47
62680;BME280;68213;40.528;44.712;2023-04-10T02:27:52;80658.28;;;3.71;63.94
62680;BME280;68213;40.528;44.712;2023-04-10T02:28:53;80660.22;;;3.71;65.05
62680;BME280;68213;40.528;44.712;2023-04-10T02:29:54;80652.63;;;3.65;64.32
62680;BME280;68213;40.528;44.712;2023-04-10T02:30:54;80664.63;;;3.60;64.53
62680;BME280;68213;40.528;44.712;2023-04-10T02:31:55;80661.13;;;3.65;64.47
62680;BME280;68213;40.528;44.712;2023-04-10T02:32:55;80655.44;;;3.59;64.68
62680;BME280;68213;40.528;44.712;2023-04-10T02:33:56;80652.38;;;3.53;64.63
62680;BME280;68213;40.528;44.712;2023-04-10T02:34:57;80658.59;;;3.58;65.59
62680;BME280;68213;40.528;44.712;2023-04-10T02:35:59;80648.19;;;3.58;66.12
62680;BME280;68213;40.528;44.712;2023-04-10T02:37:00;80655.81;;;3.56;65.22
62680;BME280;68213;40.528;44.712;2023-04-10T02:38:01;80661.03;;;3.56;65.73
62680;BME280;68213;40.528;44.712;2023-04-10T02:39:02;80660.81;;;3.61;65.52
62680;BME280;68213;40.528;44.712;2023-04-10T02:40:03;80649.25;;;3.55;65.45
62680;BME280;68213;40.528;44.712;2023-04-10T02:41:04;80622.03;;;3.38;64.46
62680;BME280;68213;40.528;44.712;2023-04-10T02:42:05;80645.81;;;3.52;64.43
62680;BME280;68213;40.528;44.712;2023-04-10T02:43:05;80658.59;;;3.58;63.54
62680;BME280;68213;40.528;44.712;2023-04-10T02:44:06;80662.25;;;3.55;64.85
62680;BME280;68213;40.528;44.712;2023-04-10T02:45:08;80665.34;;;3.61;65.67
62680;BME280;68213;40.528;44.712;2023-04-10T02:46:08;80662.56;;;3.59;65.29
62680;BME280;68213;40.528;44.712;2023-04-10T02:47:09;80669.81;;;3.60;64.38
62680;BME280;68213;40.528;44.712;2023-04-10T02:48:10;80662.03;;;3.60;63.89
62680;BME280;68213;40.528;44.712;2023-04-10T02:49:10;80652.75;;;3.49;64.70
62680;BME280;68213;40.528;44.712;2023-04-10T02:50:11;80662.72;;;3.61;65.73
62680;BME280;68213;40.528;44.712;2023-04-10T02:51:12;80672.75;;;3.64;65.07
62680;BME280;68213;40.528;44.712;2023-04-10T02:52:13;80663.72;;;3.65;65.85
62680;BME280;68213;40.528;44.712;2023-04-10T02:53:14;80673.44;;;3.65;66.38
62680;BME280;68213;40.528;44.712;2023-04-10T02:54:15;80656.00;;;3.58;65.97
62680;BME280;68213;40.528;44.712;2023-04-10T02:55:16;80667.00;;;3.84;64.91
62680;BME280;68213;40.528;44.712;2023-04-10T02:56:16;80665.41;;;3.88;65.17
62680;BME280;68213;40.528;44.712;2023-04-10T02:57:17;80664.75;;;4.05;64.24
62680;BME280;68213;40.528;44.712;2023-04-10T02:58:18;80667.72;;;4.19;63.61
62680;BME280;68213;40.528;44.712;2023-04-10T02:59:19;80668.09;;;4.33;63.48
62680;BME280;68213;40.528;44.712;2023-04-10T03:00:21;80635.81;;;4.19;63.45
62680;BME280;68213;40.528;44.712;2023-04-10T03:01:22;80662.19;;;4.50;62.89
62680;BME280;68213;40.528;44.712;2023-04-10T03:02:23;80662.78;;;4.58;62.61
62680;BME280;68213;40.528;44.712;2023-04-10T03:03:23;80663.75;;;4.63;62.58
62680;BME280;68213;40.528;44.712;2023-04-10T03:04:24;80657.06;;;4.70;62.17
62680;BME280;68213;40.528;44.712;2023-04-10T03:05:25;80662.88;;;4.78;62.18
62680;BME280;68213;40.528;44.712;2023-04-10T03:06:26;80644.41;;;4.84;61.81
62680;BME280;68213;40.528;44.712;2023-04-10T03:07:27;80661.03;;;4.88;61.50
62680;BME280;68213;40.528;44.712;2023-04-10T03:08:27;80652.97;;;4.94;61.53
62680;BME280;68213;40.528;44.712;2023-04-10T03:09:31;80648.19;;;5.00;60.90
62680;BME280;68213;40.528;44.712;2023-04-10T03:10:32;80648.22;;;5.10;60.93
62680;BME280;68213;40.528;44.712;2023-04-10T03:11:34;80651.97;;;5.17;60.68
62680;BME280;68213;40.528;44.712;2023-04-10T03:12:35;80654.31;;;5.22;60.17
62680;BME280;68213;40.528;44.712;2023-04-10T03:13:35;80623.78;;;5.05;60.03
62680;BME280;68213;40.528;44.712;2023-04-10T03:14:36;80646.53;;;5.32;59.58
62680;BME280;68213;40.528;44.712;2023-04-10T03:15:37;80644.22;;;5.36;59.90
62680;BME280;68213;40.528;44.712;2023-04-10T03:16:37;80649.03;;;5.40;61.36
62680;BME280;68213;40.528;44.712;2023-04-10T03:17:40;80649.19;;;5.42;61.85
62680;BME280;68213;40.528;44.712;2023-04-10T03:18:41;80651.34;;;5.36;62.92
62680;BME280;68213;40.528;44.712;2023-04-10T03:19:41;80658.31;;;5.33;62.52
62680;BME280;68213;40.528;44.712;2023-04-10T03:20:42;80656.28;;;5.32;62.26
62680;BME280;68213;40.528;44.712;2023-04-10T03:21:42;80656.91;;;5.22;63.21
62680;BME280;68213;40.528;44.712;2023-04-10T03:22:44;80650.22;;;5.29;62.78
62680;BME280;68213;40.528;44.712;2023-04-10T03:23:45;80652.16;;;5.29;62.61
62680;BME280;68213;40.528;44.712;2023-04-10T03:24:45;80662.28;;;5.24;61.54
62680;BME280;68213;40.528;44.712;2023-04-10T03:25:50;80656.88;;;5.13;61.56
62680;BME280;68213;40.528;44.712;2023-04-10T03:26:54;80674.19;;;5.18;62.59
62680;BME280;68213;40.528;44.712;2023-04-10T03:27:56;80667.16;;;5.11;63.18
62680;BME280;68213;40.528;44.712;2023-04-10T03:28:57;80667.59;;;5.17;62.45
62680;BME280;68213;40.528;44.712;2023-04-10T03:29:57;80663.22;;;5.19;62.32
62680;BME280;68213;40.528;44.712;2023-04-10T03:30:58;80663.03;;;5.07;63.14
62680;BME280;68213;40.528;44.712;2023-04-10T03:32:01;80663.75;;;5.18;62.84
62680;BME280;68213;40.528;44.712;2023-04-10T03:33:02;80666.81;;;5.24;61.92
62680;BME280;68213;40.528;44.712;2023-04-10T03:34:02;80665.03;;;5.27;61.95
62680;BME280;68213;40.528;44.712;2023-04-10T03:35:03;80661.09;;;5.35;61.26
62680;BME280;68213;40.528;44.712;2023-04-10T03:36:04;80656.16;;;5.39;60.93
62680;BME280;68213;40.528;44.712;2023-04-10T03:37:05;80665.22;;;5.38;61.11
62680;BME280;68213;40.528;44.712;2023-04-10T03:38:06;80658.91;;;5.42;60.09
62680;BME280;68213;40.528;44.712;2023-04-10T03:39:06;80661.38;;;5.39;60.88
62680;BME280;68213;40.528;44.712;2023-04-10T03:40:08;80661.78;;;5.36;63.79
62680;BME280;68213;40.528;44.712;2023-04-10T03:41:09;80659.69;;;5.34;64.60
62680;BME280;68213;40.528;44.712;2023-04-10T03:42:10;80662.03;;;5.30;61.29
62680;BME280;68213;40.528;44.712;2023-04-10T03:43:11;80662.44;;;5.27;61.54
62680;BME280;68213;40.528;44.712;2023-04-10T03:44:11;80662.31;;;5.34;61.35
62680;BME280;68213;40.528;44.712;2023-04-10T03:45:12;80661.09;;;5.35;60.90
62680;BME280;68213;40.528;44.712;2023-04-10T03:46:13;80654.09;;;5.38;61.33
62680;BME280;68213;40.528;44.712;2023-04-10T03:47:13;80660.00;;;5.38;61.46
62680;BME280;68213;40.528;44.712;2023-04-10T03:48:14;80629.22;;;5.27;60.33
62680;BME280;68213;40.528;44.712;2023-04-10T03:49:15;80650.44;;;5.51;58.96
62680;BME280;68213;40.528;44.712;2023-04-10T03:50:15;80654.69;;;5.56;59.11
62680;BME280;68213;40.528;44.712;2023-04-10T03:51:16;80655.66;;;5.61;58.79
62680;BME280;68213;40.528;44.712;2023-04-10T03:52:17;80650.59;;;5.63;59.82
62680;BME280;68213;40.528;44.712;2023-04-10T03:53:19;80652.38;;;5.60;60.26
62680;BME280;68213;40.528;44.712;2023-04-10T03:54:19;80653.88;;;5.63;59.69
62680;BME280;68213;40.528;44.712;2023-04-10T03:55:20;80662.16;;;5.69;59.29
62680;BME280;68213;40.528;44.712;2023-04-10T03:56:21;80667.50;;;5.71;59.26
62680;BME280;68213;40.528;44.712;2023-04-10T03:57:21;80662.28;;;5.71;58.85
62680;BME280;68213;40.528;44.712;2023-04-10T03:58:22;80667.50;;;5.71;59.42
62680;BME280;68213;40.528;44.712;2023-04-10T03:59:23;80666.56;;;5.77;59.67
62680;BME280;68213;40.528;44.712;2023-04-10T04:00:24;80670.69;;;5.80;59.08
62680;BME280;68213;40.528;44.712;2023-04-10T04:01:25;80673.84;;;5.78;59.78
62680;BME280;68213;40.528;44.712;2023-04-10T04:02:26;80677.28;;;5.81;59.05
62680;BME280;68213;40.528;44.712;2023-04-10T04:03:27;80676.88;;;5.84;58.42
62680;BME280;68213;40.528;44.712;2023-04-10T04:04:27;80682.38;;;5.88;58.57
62680;BME280;68213;40.528;44.712;2023-04-10T04:05:30;80673.72;;;5.96;57.99
62680;BME280;68213;40.528;44.712;2023-04-10T04:06:31;80677.19;;;5.98;58.05
62680;BME280;68213;40.528;44.712;2023-04-10T04:07:32;80678.31;;;6.05;58.91
62680;BME280;68213;40.528;44.712;2023-04-10T04:08:33;80683.00;;;6.07;57.93
62680;BME280;68213;40.528;44.712;2023-04-10T04:09:35;80670.88;;;6.01;57.95
62680;BME280;68213;40.528;44.712;2023-04-10T04:10:36;80687.63;;;5.98;57.67
62680;BME280;68213;40.528;44.712;2023-04-10T04:11:36;80683.34;;;5.93;58.66
62680;BME280;68213;40.528;44.712;2023-04-10T04:12:37;80688.63;;;6.03;58.25
62680;BME280;68213;40.528;44.712;2023-04-10T04:13:38;80693.03;;;6.10;58.00
62680;BME280;68213;40.528;44.712;2023-04-10T04:14:39;80693.72;;;6.11;57.04
62680;BME280;68213;40.528;44.712;2023-04-10T04:15:39;80692.06;;;6.15;57.46
62680;BME280;68213;40.528;44.712;2023-04-10T04:16:44;80692.50;;;6.22;56.92
62680;BME280;68213;40.528;44.712;2023-04-10T04:17:45;80688.25;;;6.26;56.35
62680;BME280;68213;40.528;44.712;2023-04-10T04:18:46;80691.94;;;6.33;56.36
62680;BME280;68213;40.528;44.712;2023-04-10T04:19:46;80694.28;;;6.39;55.92
62680;BME280;68213;40.528;44.712;2023-04-10T04:20:47;80690.72;;;6.44;56.16
62680;BME280;68213;40.528;44.712;2023-04-10T04:21:47;80684.13;;;6.43;56.46
62680;BME280;68213;40.528;44.712;2023-04-10T04:22:48;80688.94;;;6.46;56.89
62680;BME280;68213;40.528;44.712;2023-04-10T04:23:49;80680.41;;;6.46;58.38
62680;BME280;68213;40.528;44.712;2023-04-10T04:24:50;80680.16;;;6.42;59.59
62680;BME280;68213;40.528;44.712;2023-04-10T04:25:52;80673.00;;;6.42;58.38
62680;BME280;68213;40.528;44.712;2023-04-10T04:26:55;80686.03;;;6.52;56.09
62680;BME280;68213;40.528;44.712;2023-04-10T04:27:56;80681.09;;;6.56;56.41
62680;BME280;68213;40.528;44.712;2023-04-10T04:28:57;80687.56;;;6.65;55.89
62680;BME280;68213;40.528;44.712;2023-04-10T04:29:57;80687.16;;;6.69;56.24
62680;BME280;68213;40.528;44.712;2023-04-10T04:30:58;80670.66;;;6.56;57.47
62680;BME280;68213;40.528;44.712;2023-04-10T04:31:58;80682.19;;;6.63;56.47
62680;BME280;68213;40.528;44.712;2023-04-10T04:32:59;80684.69;;;6.71;56.11
62680;BME280;68213;40.528;44.712;2023-04-10T04:34:00;80670.66;;;6.66;56.30
62680;BME280;68213;40.528;44.712;2023-04-10T04:35:01;80692.91;;;6.77;56.11
62680;BME280;68213;40.528;44.712;2023-04-10T04:36:03;80684.09;;;6.82;55.32
62680;BME280;68213;40.528;44.712;2023-04-10T04:37:04;80683.44;;;6.72;57.50
62680;BME280;68213;40.528;44.712;2023-04-10T04:38:04;80683.03;;;6.75;55.00
62680;BME280;68213;40.528;44.712;2023-04-10T04:39:05;80688.94;;;6.76;55.72
62680;BME280;68213;40.528;44.712;2023-04-10T04:40:06;80686.34;;;6.56;60.15
62680;BME280;68213;40.528;44.712;2023-04-10T04:41:07;80689.75;;;6.39;61.05
62680;BME280;68213;40.528;44.712;2023-04-10T04:42:08;80680.28;;;6.44;60.24
62680;BME280;68213;40.528;44.712;2023-04-10T04:43:08;80681.09;;;6.27;61.33
62680;BME280;68213;40.528;44.712;2023-04-10T04:44:14;80684.91;;;6.26;60.58
62680;BME280;68213;40.528;44.712;2023-04-10T04:45:15;80670.38;;;6.13;58.63
62680;BME280;68213;40.528;44.712;2023-04-10T04:46:16;80683.00;;;6.07;60.36
62680;BME280;68213;40.528;44.712;2023-04-10T04:47:16;80689.31;;;6.03;60.11
62680;BME280;68213;40.528;44.712;2023-04-10T04:48:17;80682.19;;;6.14;60.05
62680;BME280;68213;40.528;44.712;2023-04-10T04:49:18;80677.38;;;6.20;59.51
62680;BME280;68213;40.528;44.712;2023-04-10T04:50:19;80676.25;;;6.13;60.32
62680;BME280;68213;40.528;44.712;2023-04-10T04:51:19;80679.84;;;6.18;60.31
62680;BME280;68213;40.528;44.712;2023-04-10T04:52:20;80681.50;;;6.23;60.30
62680;BME280;68213;40.528;44.712;2023-04-10T04:53:21;80676.28;;;6.23;60.40
62680;BME280;68213;40.528;44.712;2023-04-10T04:54:22;80673.25;;;6.27;59.39
62680;BME280;68213;40.528;44.712;2023-04-10T04:55:22;80679.59;;;6.24;59.54
62680;BME280;68213;40.528;44.712;2023-04-10T04:56:23;80680.97;;;6.25;59.36
62680;BME280;68213;40.528;44.712;2023-04-10T04:57:23;80674.38;;;6.24;59.34
62680;BME280;68213;40.528;44.712;2023-04-10T04:58:24;80676.81;;;6.31;59.58
62680;BME280;68213;40.528;44.712;2023-04-10T04:59:25;80650.56;;;6.19;59.61
62680;BME280;68213;40.528;44.712;2023-04-10T05:00:25;80677.25;;;6.38;59.91
62680;BME280;68213;40.528;44.712;2023-04-10T05:01:26;80674.91;;;6.42;59.58
62680;BME280;68213;40.528;44.712;2023-04-10T05:02:27;80672.16;;;6.40;59.82
62680;BME280;68213;40.528;44.712;2023-04-10T05:03:27;80675.75;;;6.44;59.18
62680;BME280;68213;40.528;44.712;2023-04-10T05:04:28;80680.28;;;6.44;59.51
62680;BME280;68213;40.528;44.712;2023-04-10T05:05:28;80675.19;;;6.46;59.52
62680;BME280;68213;40.528;44.712;2023-04-10T05:06:29;80677.53;;;6.42;59.77
62680;BME280;68213;40.528;44.712;2023-04-10T05:07:31;80675.59;;;6.52;59.23
62680;BME280;68213;40.528;44.712;2023-04-10T05:08:32;80679.72;;;6.55;59.66
62680;BME280;68213;40.528;44.712;2023-04-10T05:09:33;80668.44;;;6.33;59.07
62680;BME280;68213;40.528;44.712;2023-04-10T05:10:33;80668.44;;;6.23;60.19
62680;BME280;68213;40.528;44.712;2023-04-10T05:11:34;80665.25;;;6.15;60.65
62680;BME280;68213;40.528;44.712;2023-04-10T05:12:35;80677.47;;;6.02;60.07
62680;BME280;68213;40.528;44.712;2023-04-10T05:13:36;80665.06;;;5.93;60.11
62680;BME280;68213;40.528;44.712;2023-04-10T05:14:36;80659.50;;;6.16;59.06
62680;BME280;68213;40.528;44.712;2023-04-10T05:15:37;80658.69;;;6.24;59.27
62680;BME280;68213;40.528;44.712;2023-04-10T05:16:38;80652.78;;;6.33;59.38
62680;BME280;68213;40.528;44.712;2023-04-10T05:17:39;80659.66;;;6.48;58.36
62680;BME280;68213;40.528;44.712;2023-04-10T05:18:40;80658.56;;;6.51;58.67
62680;BME280;68213;40.528;44.712;2023-04-10T05:20:47;80668.59;;;6.64;57.56
62680;BME280;68213;40.528;44.712;2023-04-10T05:21:48;80662.69;;;6.74;57.92
62680;BME280;68213;40.528;44.712;2023-04-10T05:22:49;80661.84;;;6.81;58.13
62680;BME280;68213;40.528;44.712;2023-04-10T05:23:49;80653.06;;;6.76;58.21
62680;BME280;68213;40.528;44.712;2023-04-10T05:24:50;80659.22;;;6.71;58.36
62680;BME280;68213;40.528;44.712;2023-04-10T05:25:51;80657.31;;;6.72;58.26
62680;BME280;68213;40.528;44.712;2023-04-10T05:26:51;80659.38;;;6.73;57.97
62680;BME280;68213;40.528;44.712;2023-04-10T05:27:52;80661.97;;;6.83;58.13
62680;BME280;68213;40.528;44.712;2023-04-10T05:28:53;80658.00;;;6.62;58.37
62680;BME280;68213;40.528;44.712;2023-04-10T05:29:53;80667.63;;;6.50;57.46
62680;BME280;68213;40.528;44.712;2023-04-10T05:30:56;80674.66;;;6.47;57.57
62680;BME280;68213;40.528;44.712;2023-04-10T05:31:57;80664.88;;;6.38;58.65
62680;BME280;68213;40.528;44.712;2023-04-10T05:32:57;80667.22;;;6.54;57.83
62680;BME280;68213;40.528;44.712;2023-04-10T05:33:58;80671.22;;;6.64;57.52
62680;BME280;68213;40.528;44.712;2023-04-10T05:34:59;80669.69;;;6.71;57.76
62680;BME280;68213;40.528;44.712;2023-04-10T05:35:59;80667.91;;;6.54;59.34
62680;BME280;68213;40.528;44.712;2023-04-10T05:37:00;80665.97;;;6.45;58.26
62680;BME280;68213;40.528;44.712;2023-04-10T05:38:00;80661.03;;;6.49;58.78
62680;BME280;68213;40.528;44.712;2023-04-10T05:39:01;80664.06;;;6.55;58.59
62680;BME280;68213;40.528;44.712;2023-04-10T05:40:02;80666.41;;;6.51;58.59
62680;BME280;68213;40.528;44.712;2023-04-10T05:41:03;80671.50;;;6.39;58.03
62680;BME280;68213;40.528;44.712;2023-04-10T05:42:04;80662.00;;;6.54;57.63